sensor_id;sensor_type;location;lat;lon;timestamp;pressure;altitude;pressure_sealevel;temperature;humidity
46836;BME280;32573;51.290;6.926;2023-11-22T00:00:12;101179.06;;;7.72;100.00
46836;BME280;32573;51.290;6.926;2023-11-22T00:02:41;101179.84;;;7.71;100.00
46836;BME280;32573;51.290;6.926;2023-11-22T00:05:11;101173.69;;;7.69;100.00
46836;BME280;32573;51.290;6.926;2023-11-22T00:07:40;101170.88;;;7.66;100.00
46836;BME280;32573;51.290;6.926;2023-11-22T00:10:09;101171.69;;;7.65;100.00
46836;BME280;32573;51.290;6.926;2023-11-22T00:12:37;101166.31;;;7.62;100.00
46836;BME280;32573;51.290;6.926;2023-11-22T00:15:09;101166.13;;;7.59;100.00
46836;BME280;32573;51.290;6.926;2023-11-22T00:17:39;101168.50;;;7.54;100.00
46836;BME280;32573;51.290;6.926;2023-11-22T00:20:09;101164.03;;;7.51;100.00
46836;BME280;32573;51.290;6.926;2023-11-22T00:22:39;101168.25;;;7.49;100.00
46836;BME280;32573;51.290;6.926;2023-11-22T00:25:08;101169.84;;;7.47;100.00
46836;BME280;32573;51.290;6.926;2023-11-22T00:27:41;101170.47;;;7.43;100.00
46836;BME280;32573;51.290;6.926;2023-11-22T00:30:12;101177.31;;;7.41;100.00
46836;BME280;32573;51.290;6.926;2023-11-22T00:32:41;101180.56;;;7.37;100.00
46836;BME280;32573;51.290;6.926;2023-11-22T00:35:10;101175.19;;;7.34;100.00
46836;BME280;32573;51.290;6.926;2023-11-22T00:37:40;101180.19;;;7.31;100.00
46836;BME280;32573;51.290;6.926;2023-11-22T00:40:12;101171.22;;;7.26;100.00
46836;BME280;32573;51.290;6.926;2023-11-22T00:42:41;101177.88;;;7.21;100.00
46836;BME280;32573;51.290;6.926;2023-11-22T00:45:12;101189.00;;;7.18;100.00
46836;BME280;32573;51.290;6.926;2023-11-22T00:47:40;101180.94;;;7.13;100.00
46836;BME280;32573;51.290;6.926;2023-11-22T00:50:10;101182.47;;;7.10;100.00
46836;BME280;32573;51.290;6.926;2023-11-22T00:52:39;101178.81;;;7.06;100.00
46836;BME280;32573;51.290;6.926;2023-11-22T00:55:12;101176.81;;;7.02;100.00
46836;BME280;32573;51.290;6.926;2023-11-22T00:57:41;101180.03;;;6.98;100.00
46836;BME280;32573;51.290;6.926;2023-11-22T01:00:10;101192.06;;;6.96;100.00
46836;BME280;32573;51.290;6.926;2023-11-22T01:02:41;101190.09;;;6.92;100.00
46836;BME280;32573;51.290;6.926;2023-11-22T01:05:10;101187.38;;;6.90;100.00
46836;BME280;32573;51.290;6.926;2023-11-22T01:07:40;101195.13;;;6.89;100.00
46836;BME280;32573;51.290;6.926;2023-11-22T01:10:10;101194.03;;;6.85;100.00
46836;BME280;32573;51.290;6.926;2023-11-22T01:12:39;101188.72;;;6.84;100.00
46836;BME280;32573;51.290;6.926;2023-11-22T01:15:09;101187.75;;;6.82;100.00
46836;BME280;32573;51.290;6.926;2023-11-22T01:17:38;101204.97;;;6.80;100.00
46836;BME280;32573;51.290;6.926;2023-11-22T01:20:34;101212.69;;;6.78;100.00
46836;BME280;32573;51.290;6.926;2023-11-22T01:23:04;101203.00;;;6.76;100.00
46836;BME280;32573;51.290;6.926;2023-11-22T01:25:33;101212.41;;;6.74;100.00
46836;BME280;32573;51.290;6.926;2023-11-22T01:28:01;101213.22;;;6.73;100.00
46836;BME280;32573;51.290;6.926;2023-11-22T01:30:30;101211.22;;;6.68;100.00
46836;BME280;32573;51.290;6.926;2023-11-22T01:32:59;101207.66;;;6.66;100.00
46836;BME280;32573;51.290;6.926;2023-11-22T01:35:28;101212.03;;;6.67;100.00
46836;BME280;32573;51.290;6.926;2023-11-22T01:37:58;101218.06;;;6.66;100.00
46836;BME280;32573;51.290;6.926;2023-11-22T01:40:27;101215.47;;;6.66;100.00
46836;BME280;32573;51.290;6.926;2023-11-22T01:42:56;101225.06;;;6.67;100.00
46836;BME280;32573;51.290;6.926;2023-11-22T01:45:24;101239.84;;;6.68;100.00
46836;BME280;32573;51.290;6.926;2023-11-22T01:47:54;101250.34;;;6.70;100.00
46836;BME280;32573;51.290;6.926;2023-11-22T01:50:22;101247.03;;;6.73;100.00
46836;BME280;32573;51.290;6.926;2023-11-22T01:52:51;101253.25;;;6.75;100.00
46836;BME280;32573;51.290;6.926;2023-11-22T01:55:22;101246.22;;;6.74;100.00
46836;BME280;32573;51.290;6.926;2023-11-22T01:57:51;101256.63;;;6.74;100.00
46836;BME280;32573;51.290;6.926;2023-11-22T02:00:21;101248.75;;;6.72;100.00
46836;BME280;32573;51.290;6.926;2023-11-22T02:02:52;101260.88;;;6.72;100.00
46836;BME280;32573;51.290;6.926;2023-11-22T02:05:21;101270.28;;;6.69;100.00
46836;BME280;32573;51.290;6.926;2023-11-22T02:07:50;101276.19;;;6.67;100.00
46836;BME280;32573;51.290;6.926;2023-11-22T02:10:19;101282.16;;;6.66;100.00
46836;BME280;32573;51.290;6.926;2023-11-22T02:12:49;101286.38;;;6.64;100.00
46836;BME280;32573;51.290;6.926;2023-11-22T02:15:18;101287.09;;;6.61;100.00
46836;BME280;32573;51.290;6.926;2023-11-22T02:17:47;101292.22;;;6.60;100.00
46836;BME280;32573;51.290;6.926;2023-11-22T02:20:16;101291.31;;;6.59;100.00
46836;BME280;32573;51.290;6.926;2023-11-22T02:22:45;101293.91;;;6.59;100.00
46836;BME280;32573;51.290;6.926;2023-11-22T02:25:16;101286.91;;;6.58;100.00
46836;BME280;32573;51.290;6.926;2023-11-22T02:27:46;101284.00;;;6.54;100.00
46836;BME280;32573;51.290;6.926;2023-11-22T02:30:15;101281.22;;;6.51;100.00
46836;BME280;32573;51.290;6.926;2023-11-22T02:32:44;101274.06;;;6.46;100.00
46836;BME280;32573;51.290;6.926;2023-11-22T02:35:13;101280.03;;;6.45;100.00
46836;BME280;32573;51.290;6.926;2023-11-22T02:37:43;101279.84;;;6.42;100.00
46836;BME280;32573;51.290;6.926;2023-11-22T02:40:18;101278.84;;;6.40;100.00
46836;BME280;32573;51.290;6.926;2023-11-22T02:42:48;101267.47;;;6.38;100.00
46836;BME280;32573;51.290;6.926;2023-11-22T02:45:18;101270.75;;;6.36;100.00
46836;BME280;32573;51.290;6.926;2023-11-22T02:47:47;101264.56;;;6.34;100.00
46836;BME280;32573;51.290;6.926;2023-11-22T02:50:16;101266.38;;;6.35;100.00
46836;BME280;32573;51.290;6.926;2023-11-22T02:52:45;101266.38;;;6.35;100.00
46836;BME280;32573;51.290;6.926;2023-11-22T02:55:14;101275.97;;;6.36;100.00
46836;BME280;32573;51.290;6.926;2023-11-22T02:57:44;101278.56;;;6.36;100.00
46836;BME280;32573;51.290;6.926;2023-11-22T03:00:13;101278.50;;;6.34;100.00
46836;BME280;32573;51.290;6.926;2023-11-22T03:02:45;101273.28;;;6.34;100.00
46836;BME280;32573;51.290;6.926;2023-11-22T03:05:14;101282.75;;;6.34;100.00
46836;BME280;32573;51.290;6.926;2023-11-22T03:07:43;101283.56;;;6.33;100.00
46836;BME280;32573;51.290;6.926;2023-11-22T03:10:12;101300.19;;;6.35;100.00
46836;BME280;32573;51.290;6.926;2023-11-22T03:12:41;101304.56;;;6.36;100.00
46836;BME280;32573;51.290;6.926;2023-11-22T03:15:12;101310.88;;;6.39;100.00
46836;BME280;32573;51.290;6.926;2023-11-22T03:17:40;101302.25;;;6.40;100.00
46836;BME280;32573;51.290;6.926;2023-11-22T03:20:11;101307.56;;;6.42;100.00
46836;BME280;32573;51.290;6.926;2023-11-22T03:22:40;101306.75;;;6.43;100.00
46836;BME280;32573;51.290;6.926;2023-11-22T03:25:11;101311.25;;;6.45;100.00
46836;BME280;32573;51.290;6.926;2023-11-22T03:27:41;101316.63;;;6.48;100.00
46836;BME280;32573;51.290;6.926;2023-11-22T03:30:14;101323.66;;;6.50;100.00
46836;BME280;32573;51.290;6.926;2023-11-22T03:32:43;101326.34;;;6.51;100.00
46836;BME280;32573;51.290;6.926;2023-11-22T03:35:12;101326.56;;;6.54;100.00
46836;BME280;32573;51.290;6.926;2023-11-22T03:37:40;101323.31;;;6.58;100.00
46836;BME280;32573;51.290;6.926;2023-11-22T03:40:10;101321.59;;;6.59;100.00
46836;BME280;32573;51.290;6.926;2023-11-22T03:42:41;101320.91;;;6.61;100.00
46836;BME280;32573;51.290;6.926;2023-11-22T03:45:09;101326.09;;;6.61;100.00
46836;BME280;32573;51.290;6.926;2023-11-22T03:47:41;101331.53;;;6.64;100.00
46836;BME280;32573;51.290;6.926;2023-11-22T03:50:10;101324.72;;;6.66;100.00
46836;BME280;32573;51.290;6.926;2023-11-22T03:52:39;101325.69;;;6.68;100.00
46836;BME280;32573;51.290;6.926;2023-11-22T03:55:08;101335.31;;;6.69;100.00
46836;BME280;32573;51.290;6.926;2023-11-22T03:57:37;101338.81;;;6.70;100.00
46836;BME280;32573;51.290;6.926;2023-11-22T04:00:06;101340.50;;;6.69;100.00
46836;BME280;32573;51.290;6.926;2023-11-22T04:02:41;101343.13;;;6.69;100.00
46836;BME280;32573;51.290;6.926;2023-11-22T04:05:11;101348.13;;;6.66;100.00
46836;BME280;32573;51.290;6.926;2023-11-22T04:07:40;101345.31;;;6.63;100.00
46836;BME280;32573;51.290;6.926;2023-11-22T04:10:09;101353.75;;;6.59;100.00
46836;BME280;32573;51.290;6.926;2023-11-22T04:12:38;101362.16;;;6.55;100.00
46836;BME280;32573;51.290;6.926;2023-11-22T04:15:07;101382.66;;;6.51;100.00
46836;BME280;32573;51.290;6.926;2023-11-22T04:17:38;101383.16;;;6.45;100.00
46836;BME280;32573;51.290;6.926;2023-11-22T04:20:10;101379.38;;;6.40;100.00
46836;BME280;32573;51.290;6.926;2023-11-22T04:22:42;101379.97;;;6.36;100.00
46836;BME280;32573;51.290;6.926;2023-11-22T04:25:12;101390.06;;;6.31;100.00
46836;BME280;32573;51.290;6.926;2023-11-22T04:27:42;101393.28;;;6.27;100.00
46836;BME280;32573;51.290;6.926;2023-11-22T04:30:11;101392.16;;;6.23;100.00
46836;BME280;32573;51.290;6.926;2023-11-22T04:32:42;101397.19;;;6.20;100.00
46836;BME280;32573;51.290;6.926;2023-11-22T04:35:13;101399.59;;;6.17;100.00
46836;BME280;32573;51.290;6.926;2023-11-22T04:37:41;101394.28;;;6.16;100.00
46836;BME280;32573;51.290;6.926;2023-11-22T04:40:11;101396.78;;;6.14;100.00
46836;BME280;32573;51.290;6.926;2023-11-22T04:42:42;101398.38;;;6.12;100.00
46836;BME280;32573;51.290;6.926;2023-11-22T04:45:11;101396.47;;;6.10;100.00
46836;BME280;32573;51.290;6.926;2023-11-22T04:47:40;101386.88;;;6.09;100.00
46836;BME280;32573;51.290;6.926;2023-11-22T04:50:10;101392.06;;;6.09;100.00
46836;BME280;32573;51.290;6.926;2023-11-22T04:52:40;101392.06;;;6.09;100.00
46836;BME280;32573;51.290;6.926;2023-11-22T04:55:09;101390.41;;;6.09;100.00
46836;BME280;32573;51.290;6.926;2023-11-22T04:57:38;101388.56;;;6.08;100.00
46836;BME280;32573;51.290;6.926;2023-11-22T05:00:09;101381.47;;;6.05;100.00
46836;BME280;32573;51.290;6.926;2023-11-22T05:02:38;101384.88;;;6.04;100.00
46836;BME280;32573;51.290;6.926;2023-11-22T05:05:08;101394.34;;;6.04;100.00
46836;BME280;32573;51.290;6.926;2023-11-22T05:07:38;101395.97;;;6.02;100.00
46836;BME280;32573;51.290;6.926;2023-11-22T05:10:09;101396.69;;;5.99;100.00
46836;BME280;32573;51.290;6.926;2023-11-22T05:12:38;101395.56;;;5.96;100.00
46836;BME280;32573;51.290;6.926;2023-11-22T05:15:07;101401.34;;;5.92;100.00
46836;BME280;32573;51.290;6.926;2023-11-22T05:17:36;101408.91;;;5.89;100.00
46836;BME280;32573;51.290;6.926;2023-11-22T05:20:06;101406.00;;;5.84;100.00
46836;BME280;32573;51.290;6.926;2023-11-22T05:22:36;101421.50;;;5.82;100.00
46836;BME280;32573;51.290;6.926;2023-11-22T05:25:06;101418.69;;;5.79;100.00
46836;BME280;32573;51.290;6.926;2023-11-22T05:27:36;101418.47;;;5.76;100.00
46836;BME280;32573;51.290;6.926;2023-11-22T05:30:06;101424.34;;;5.74;100.00
46836;BME280;32573;51.290;6.926;2023-11-22T05:32:35;101428.66;;;5.73;100.00
46836;BME280;32573;51.290;6.926;2023-11-22T05:35:05;101440.63;;;5.71;100.00
46836;BME280;32573;51.290;6.926;2023-11-22T05:37:37;101448.34;;;5.70;100.00
46836;BME280;32573;51.290;6.926;2023-11-22T05:40:07;101438.66;;;5.67;100.00
46836;BME280;32573;51.290;6.926;2023-11-22T05:42:38;101448.78;;;5.64;100.00
46836;BME280;32573;51.290;6.926;2023-11-22T05:45:08;101446.81;;;5.60;100.00
46836;BME280;32573;51.290;6.926;2023-11-22T05:47:37;101438.81;;;5.57;100.00
46836;BME280;32573;51.290;6.926;2023-11-22T05:50:07;101439.38;;;5.53;100.00
46836;BME280;32573;51.290;6.926;2023-11-22T05:52:36;101439.97;;;5.49;100.00
46836;BME280;32573;51.290;6.926;2023-11-22T05:55:06;101443.16;;;5.45;100.00
46836;BME280;32573;51.290;6.926;2023-11-22T05:57:35;101449.81;;;5.41;100.00
46836;BME280;32573;51.290;6.926;2023-11-22T06:00:07;101452.09;;;5.36;100.00
46836;BME280;32573;51.290;6.926;2023-11-22T06:02:36;101457.06;;;5.33;100.00
46836;BME280;32573;51.290;6.926;2023-11-22T06:05:07;101448.97;;;5.29;100.00
46836;BME280;32573;51.290;6.926;2023-11-22T06:07:37;101456.53;;;5.26;100.00
46836;BME280;32573;51.290;6.926;2023-11-22T06:10:06;101449.22;;;5.20;100.00
46836;BME280;32573;51.290;6.926;2023-11-22T06:12:35;101445.41;;;5.15;100.00
46836;BME280;32573;51.290;6.926;2023-11-22T06:15:07;101443.50;;;5.12;100.00
46836;BME280;32573;51.290;6.926;2023-11-22T06:17:36;101442.38;;;5.09;100.00
46836;BME280;32573;51.290;6.926;2023-11-22T06:20:05;101447.47;;;5.07;100.00
46836;BME280;32573;51.290;6.926;2023-11-22T06:22:34;101454.25;;;5.05;100.00
46836;BME280;32573;51.290;6.926;2023-11-22T06:25:08;101452.22;;;5.01;100.00
46836;BME280;32573;51.290;6.926;2023-11-22T06:27:37;101461.47;;;4.97;100.00
46836;BME280;32573;51.290;6.926;2023-11-22T06:30:09;101457.88;;;4.95;100.00
46836;BME280;32573;51.290;6.926;2023-11-22T06:32:38;101454.16;;;4.92;100.00
46836;BME280;32573;51.290;6.926;2023-11-22T06:35:07;101465.09;;;4.88;100.00
46836;BME280;32573;51.290;6.926;2023-11-22T06:37:37;101465.78;;;4.85;100.00
46836;BME280;32573;51.290;6.926;2023-11-22T06:40:07;101468.94;;;4.81;100.00
46836;BME280;32573;51.290;6.926;2023-11-22T06:42:36;101469.63;;;4.79;100.00
46836;BME280;32573;51.290;6.926;2023-11-22T06:45:06;101482.25;;;4.74;100.00
46836;BME280;32573;51.290;6.926;2023-11-22T06:47:38;101482.03;;;4.71;100.00
46836;BME280;32573;51.290;6.926;2023-11-22T06:50:08;101479.22;;;4.68;100.00
46836;BME280;32573;51.290;6.926;2023-11-22T06:52:39;101492.75;;;4.64;100.00
46836;BME280;32573;51.290;6.926;2023-11-22T06:55:09;101484.75;;;4.61;100.00
46836;BME280;32573;51.290;6.926;2023-11-22T06:57:38;101480.03;;;4.55;100.00
46836;BME280;32573;51.290;6.926;2023-11-22T07:00:08;101477.91;;;4.49;100.00
46836;BME280;32573;51.290;6.926;2023-11-22T07:02:40;101480.22;;;4.46;100.00
46836;BME280;32573;51.290;6.926;2023-11-22T07:05:09;101482.59;;;4.43;100.00
46836;BME280;32573;51.290;6.926;2023-11-22T07:07:38;101486.69;;;4.40;100.00
46836;BME280;32573;51.290;6.926;2023-11-22T07:10:08;101493.31;;;4.36;100.00
46836;BME280;32573;51.290;6.926;2023-11-22T07:12:38;101497.47;;;4.34;100.00
46836;BME280;32573;51.290;6.926;2023-11-22T07:15:10;101497.25;;;4.31;100.00
46836;BME280;32573;51.290;6.926;2023-11-22T07:17:40;101501.41;;;4.29;100.00
46836;BME280;32573;51.290;6.926;2023-11-22T07:20:09;101496.00;;;4.26;100.00
46836;BME280;32573;51.290;6.926;2023-11-22T07:22:44;101508.88;;;4.24;100.00
46836;BME280;32573;51.290;6.926;2023-11-22T07:25:12;101508.50;;;4.20;100.00
46836;BME280;32573;51.290;6.926;2023-11-22T07:27:45;101519.66;;;4.19;100.00
46836;BME280;32573;51.290;6.926;2023-11-22T07:30:17;101525.63;;;4.18;100.00
46836;BME280;32573;51.290;6.926;2023-11-22T07:32:49;101534.16;;;4.17;100.00
46836;BME280;32573;51.290;6.926;2023-11-22T07:35:20;101546.13;;;4.15;100.00
46836;BME280;32573;51.290;6.926;2023-11-22T07:37:49;101556.38;;;4.13;100.00
46836;BME280;32573;51.290;6.926;2023-11-22T07:40:19;101553.66;;;4.11;100.00
46836;BME280;32573;51.290;6.926;2023-11-22T07:42:49;101545.09;;;4.13;100.00
46836;BME280;32573;51.290;6.926;2023-11-22T07:45:18;101547.69;;;4.13;100.00
46836;BME280;32573;51.290;6.926;2023-11-22T07:47:48;101542.53;;;4.13;100.00
46836;BME280;32573;51.290;6.926;2023-11-22T07:50:17;101537.44;;;4.14;100.00
46836;BME280;32573;51.290;6.926;2023-11-22T07:52:47;101543.53;;;4.15;100.00
46836;BME280;32573;51.290;6.926;2023-11-22T07:55:16;101541.94;;;4.17;100.00
46836;BME280;32573;51.290;6.926;2023-11-22T07:57:45;101544.00;;;4.21;100.00
46836;BME280;32573;51.290;6.926;2023-11-22T08:00:14;101530.22;;;4.22;100.00
46836;BME280;32573;51.290;6.926;2023-11-22T08:02:47;101530.50;;;4.25;100.00
46836;BME280;32573;51.290;6.926;2023-11-22T08:05:17;101526.44;;;4.28;100.00
46836;BME280;32573;51.290;6.926;2023-11-22T08:07:45;101515.28;;;4.29;100.00
46836;BME280;32573;51.290;6.926;2023-11-22T08:10:17;101519.00;;;4.33;100.00
46836;BME280;32573;51.290;6.926;2023-11-22T08:12:47;101510.44;;;4.34;100.00
46836;BME280;32573;51.290;6.926;2023-11-22T08:15:17;101508.09;;;4.37;100.00
46836;BME280;32573;51.290;6.926;2023-11-22T08:17:51;101503.13;;;4.40;100.00
46836;BME280;32573;51.290;6.926;2023-11-22T08:20:20;101507.75;;;4.44;100.00
46836;BME280;32573;51.290;6.926;2023-11-22T08:22:49;101506.28;;;4.48;100.00
46836;BME280;32573;51.290;6.926;2023-11-22T08:25:18;101510.91;;;4.52;100.00
46836;BME280;32573;51.290;6.926;2023-11-22T08:27:47;101517.22;;;4.56;100.00
46836;BME280;32573;51.290;6.926;2023-11-22T08:30:16;101525.34;;;4.60;100.00
46836;BME280;32573;51.290;6.926;2023-11-22T08:32:46;101524.66;;;4.63;100.00
46836;BME280;32573;51.290;6.926;2023-11-22T08:35:23;101538.88;;;4.68;100.00
46836;BME280;32573;51.290;6.926;2023-11-22T08:37:52;101530.53;;;4.72;100.00
46836;BME280;32573;51.290;6.926;2023-11-22T08:40:20;101535.94;;;4.75;100.00
46836;BME280;32573;51.290;6.926;2023-11-22T08:42:49;101543.13;;;4.79;100.00
46836;BME280;32573;51.290;6.926;2023-11-22T08:45:18;101556.34;;;4.82;100.00
46836;BME280;32573;51.290;6.926;2023-11-22T08:47:47;101570.56;;;4.87;100.00
46836;BME280;32573;51.290;6.926;2023-11-22T08:50:15;101582.06;;;4.91;100.00
46836;BME280;32573;51.290;6.926;2023-11-22T08:52:45;101585.00;;;4.95;100.00
46836;BME280;32573;51.290;6.926;2023-11-22T08:55:14;101606.97;;;5.01;100.00
46836;BME280;32573;51.290;6.926;2023-11-22T08:57:43;101603.84;;;5.05;100.00
46836;BME280;32573;51.290;6.926;2023-11-22T09:00:14;101611.97;;;5.09;100.00
46836;BME280;32573;51.290;6.926;2023-11-22T09:02:43;101608.78;;;5.13;100.00
46836;BME280;32573;51.290;6.926;2023-11-22T09:05:12;101606.53;;;5.18;100.00
46836;BME280;32573;51.290;6.926;2023-11-22T09:07:41;101599.97;;;5.23;100.00
46836;BME280;32573;51.290;6.926;2023-11-22T09:10:13;101589.81;;;5.26;100.00
46836;BME280;32573;51.290;6.926;2023-11-22T09:12:42;101586.66;;;5.30;100.00
46836;BME280;32573;51.290;6.926;2023-11-22T09:15:12;101597.47;;;5.36;100.00
46836;BME280;32573;51.290;6.926;2023-11-22T09:17:43;101594.44;;;5.42;100.00
46836;BME280;32573;51.290;6.926;2023-11-22T09:20:15;101574.00;;;5.47;100.00
46836;BME280;32573;51.290;6.926;2023-11-22T09:22:45;101581.31;;;5.52;100.00
46836;BME280;32573;51.290;6.926;2023-11-22T09:25:19;101580.03;;;5.59;100.00
46836;BME280;32573;51.290;6.926;2023-11-22T09:27:50;101580.47;;;5.65;100.00
46836;BME280;32573;51.290;6.926;2023-11-22T09:30:20;101591.19;;;5.70;100.00
46836;BME280;32573;51.290;6.926;2023-11-22T09:33:03;101591.53;;;5.74;100.00
46836;BME280;32573;51.290;6.926;2023-11-22T09:35:33;101574.56;;;5.79;100.00
46836;BME280;32573;51.290;6.926;2023-11-22T09:38:04;101565.28;;;5.83;100.00
46836;BME280;32573;51.290;6.926;2023-11-22T09:40:35;101557.81;;;5.88;100.00
46836;BME280;32573;51.290;6.926;2023-11-22T09:43:04;101561.63;;;5.93;100.00
46836;BME280;32573;51.290;6.926;2023-11-22T09:45:33;101561.84;;;5.96;100.00
46836;BME280;32573;51.290;6.926;2023-11-22T09:48:11;101563.88;;;6.00;100.00
46836;BME280;32573;51.290;6.926;2023-11-22T09:50:52;101568.47;;;6.04;100.00
46836;BME280;32573;51.290;6.926;2023-11-22T09:53:31;101562.69;;;6.08;100.00
46836;BME280;32573;51.290;6.926;2023-11-22T09:56:04;101569.94;;;6.12;100.00
46836;BME280;32573;51.290;6.926;2023-11-22T09:58:40;101578.81;;;6.16;100.00
46836;BME280;32573;51.290;6.926;2023-11-22T10:01:11;101580.03;;;6.21;100.00
46836;BME280;32573;51.290;6.926;2023-11-22T10:03:40;101576.66;;;6.22;100.00
46836;BME280;32573;51.290;6.926;2023-11-22T10:06:09;101572.56;;;6.25;100.00
46836;BME280;32573;51.290;6.926;2023-11-22T10:08:38;101576.16;;;6.28;100.00
46836;BME280;32573;51.290;6.926;2023-11-22T10:11:08;101588.34;;;6.29;100.00
46836;BME280;32573;51.290;6.926;2023-11-22T10:13:37;101581.56;;;6.31;100.00
46836;BME280;32573;51.290;6.926;2023-11-22T10:16:09;101579.09;;;6.32;100.00
46836;BME280;32573;51.290;6.926;2023-11-22T10:18:41;101577.50;;;6.34;100.00
46836;BME280;32573;51.290;6.926;2023-11-22T10:21:20;101577.69;;;6.37;100.00
46836;BME280;32573;51.290;6.926;2023-11-22T10:23:49;101577.91;;;6.40;100.00
46836;BME280;32573;51.290;6.926;2023-11-22T10:26:20;101572.88;;;6.43;100.00
46836;BME280;32573;51.290;6.926;2023-11-22T10:28:51;101581.81;;;6.47;100.00
46836;BME280;32573;51.290;6.926;2023-11-22T10:31:21;101582.91;;;6.51;100.00
46836;BME280;32573;51.290;6.926;2023-11-22T10:33:50;101578.72;;;6.53;100.00
46836;BME280;32573;51.290;6.926;2023-11-22T10:36:21;101580.75;;;6.57;100.00
46836;BME280;32573;51.290;6.926;2023-11-22T10:38:50;101580.03;;;6.59;100.00
46836;BME280;32573;51.290;6.926;2023-11-22T10:41:21;101566.41;;;6.63;100.00
46836;BME280;32573;51.290;6.926;2023-11-22T10:43:51;101575.25;;;6.65;100.00
46836;BME280;32573;51.290;6.926;2023-11-22T10:46:25;101572.84;;;6.68;100.00
46836;BME280;32573;51.290;6.926;2023-11-22T10:48:56;101578.34;;;6.73;100.00
46836;BME280;32573;51.290;6.926;2023-11-22T10:51:27;101596.88;;;6.78;100.00
46836;BME280;32573;51.290;6.926;2023-11-22T10:53:59;101574.47;;;6.80;100.00
46836;BME280;32573;51.290;6.926;2023-11-22T10:56:36;101573.84;;;6.84;100.00
46836;BME280;32573;51.290;6.926;2023-11-22T10:59:16;101578.47;;;6.88;100.00
46836;BME280;32573;51.290;6.926;2023-11-22T11:01:47;101589.88;;;6.90;100.00
46836;BME280;32573;51.290;6.926;2023-11-22T11:04:28;101584.88;;;6.93;100.00
46836;BME280;32573;51.290;6.926;2023-11-22T11:06:59;101575.47;;;6.95;100.00
46836;BME280;32573;51.290;6.926;2023-11-22T11:09:31;101572.03;;;6.96;100.00
46836;BME280;32573;51.290;6.926;2023-11-22T11:12:04;101568.53;;;6.96;100.00
46836;BME280;32573;51.290;6.926;2023-11-22T11:14:35;101561.44;;;6.93;100.00
46836;BME280;32573;51.290;6.926;2023-11-22T11:17:05;101563.03;;;6.91;100.00
46836;BME280;32573;51.290;6.926;2023-11-22T11:19:34;101556.03;;;6.90;100.00
46836;BME280;32573;51.290;6.926;2023-11-22T11:22:03;101564.75;;;6.90;100.00
46836;BME280;32573;51.290;6.926;2023-11-22T11:24:40;101560.53;;;6.93;100.00
46836;BME280;32573;51.290;6.926;2023-11-22T11:27:13;101547.84;;;6.97;100.00
46836;BME280;32573;51.290;6.926;2023-11-22T11:29:46;101557.53;;;7.00;100.00
46836;BME280;32573;51.290;6.926;2023-11-22T11:32:17;101551.63;;;7.02;100.00
46836;BME280;32573;51.290;6.926;2023-11-22T11:34:58;101537.81;;;7.03;100.00
46836;BME280;32573;51.290;6.926;2023-11-22T11:37:29;101544.91;;;7.06;100.00
46836;BME280;32573;51.290;6.926;2023-11-22T11:39:58;101537.31;;;7.09;100.00
46836;BME280;32573;51.290;6.926;2023-11-22T11:42:28;101540.19;;;7.13;100.00
46836;BME280;32573;51.290;6.926;2023-11-22T11:45:04;101543.09;;;7.18;100.00
46836;BME280;32573;51.290;6.926;2023-11-22T11:47:34;101541.59;;;7.22;100.00
46836;BME280;32573;51.290;6.926;2023-11-22T11:50:04;101552.22;;;7.25;100.00
46836;BME280;32573;51.290;6.926;2023-11-22T11:52:33;101555.81;;;7.27;100.00
46836;BME280;32573;51.290;6.926;2023-11-22T11:55:04;101560.41;;;7.31;100.00
46836;BME280;32573;51.290;6.926;2023-11-22T11:57:34;101552.88;;;7.35;100.00
46836;BME280;32573;51.290;6.926;2023-11-22T12:00:05;101548.78;;;7.39;100.00
46836;BME280;32573;51.290;6.926;2023-11-22T12:02:39;101536.94;;;7.44;100.00
46836;BME280;32573;51.290;6.926;2023-11-22T12:05:07;101536.13;;;7.45;100.00
46836;BME280;32573;51.290;6.926;2023-11-22T12:07:37;101518.78;;;7.46;100.00
46836;BME280;32573;51.290;6.926;2023-11-22T12:10:07;101500.66;;;7.47;100.00
46836;BME280;32573;51.290;6.926;2023-11-22T12:12:37;101484.31;;;7.50;100.00
46836;BME280;32573;51.290;6.926;2023-11-22T12:15:08;101464.38;;;7.50;100.00
46836;BME280;32573;51.290;6.926;2023-11-22T12:17:37;101458.28;;;7.50;100.00
46836;BME280;32573;51.290;6.926;2023-11-22T12:20:13;101446.97;;;7.49;100.00
46836;BME280;32573;51.290;6.926;2023-11-22T12:22:47;101441.66;;;7.48;100.00
46836;BME280;32573;51.290;6.926;2023-11-22T12:25:16;101438.97;;;7.46;100.00
46836;BME280;32573;51.290;6.926;2023-11-22T12:27:46;101442.34;;;7.45;100.00
46836;BME280;32573;51.290;6.926;2023-11-22T12:30:31;101434.53;;;7.45;100.00
46836;BME280;32573;51.290;6.926;2023-11-22T12:33:01;101428.53;;;7.46;100.00
46836;BME280;32573;51.290;6.926;2023-11-22T12:35:31;101427.72;;;7.47;100.00
46836;BME280;32573;51.290;6.926;2023-11-22T12:38:01;101413.88;;;7.48;100.00
46836;BME280;32573;51.290;6.926;2023-11-22T12:40:31;101406.16;;;7.50;100.00
46836;BME280;32573;51.290;6.926;2023-11-22T12:43:02;101413.16;;;7.51;100.00
46836;BME280;32573;51.290;6.926;2023-11-22T12:45:31;101409.78;;;7.52;100.00
46836;BME280;32573;51.290;6.926;2023-11-22T12:48:22;101409.06;;;7.54;100.00
46836;BME280;32573;51.290;6.926;2023-11-22T12:50:57;101417.06;;;7.57;100.00
46836;BME280;32573;51.290;6.926;2023-11-22T12:53:26;101417.22;;;7.61;100.00
46836;BME280;32573;51.290;6.926;2023-11-22T12:55:55;101406.03;;;7.62;100.00
46836;BME280;32573;51.290;6.926;2023-11-22T12:58:26;101405.09;;;7.61;100.00
46836;BME280;32573;51.290;6.926;2023-11-22T13:00:55;101415.63;;;7.63;100.00
46836;BME280;32573;51.290;6.926;2023-11-22T13:03:28;101416.63;;;7.65;100.00
46836;BME280;32573;51.290;6.926;2023-11-22T13:05:58;101413.19;;;7.66;100.00